sensor_id;sensor_type;location;lat;lon;timestamp;temperature;humidity
6956;DHT22;50345;51.136;16.886;2022-07-15T00:00:08;16.40;99.90
6956;DHT22;50345;51.136;16.886;2022-07-15T00:02:36;16.30;99.90
6956;DHT22;50345;51.136;16.886;2022-07-15T00:05:02;16.30;99.90
6956;DHT22;50345;51.136;16.886;2022-07-15T00:07:28;16.20;99.90
6956;DHT22;50345;51.136;16.886;2022-07-15T00:09:53;16.10;99.90
6956;DHT22;50345;51.136;16.886;2022-07-15T00:12:37;16.10;99.90
6956;DHT22;50345;51.136;16.886;2022-07-15T00:15:03;16.00;99.90
6956;DHT22;50345;51.136;16.886;2022-07-15T00:17:29;16.00;99.90
6956;DHT22;50345;51.136;16.886;2022-07-15T00:19:55;16.00;99.90
6956;DHT22;50345;51.136;16.886;2022-07-15T00:22:21;16.00;99.90
6956;DHT22;50345;51.136;16.886;2022-07-15T00:24:46;16.00;99.90
6956;DHT22;50345;51.136;16.886;2022-07-15T00:27:13;16.00;99.90
6956;DHT22;50345;51.136;16.886;2022-07-15T00:29:39;16.00;99.90
6956;DHT22;50345;51.136;16.886;2022-07-15T00:32:06;15.90;99.90
6956;DHT22;50345;51.136;16.886;2022-07-15T00:34:32;15.90;99.90
6956;DHT22;50345;51.136;16.886;2022-07-15T00:36:57;15.80;99.90
6956;DHT22;50345;51.136;16.886;2022-07-15T00:39:23;15.80;99.90
6956;DHT22;50345;51.136;16.886;2022-07-15T00:41:49;15.70;99.90
6956;DHT22;50345;51.136;16.886;2022-07-15T00:44:14;15.70;99.90
6956;DHT22;50345;51.136;16.886;2022-07-15T00:46:40;15.60;99.90
6956;DHT22;50345;51.136;16.886;2022-07-15T00:49:07;15.60;99.90
6956;DHT22;50345;51.136;16.886;2022-07-15T00:51:42;15.50;99.90
6956;DHT22;50345;51.136;16.886;2022-07-15T00:54:12;15.40;99.90
6956;DHT22;50345;51.136;16.886;2022-07-15T00:56:48;15.40;99.90
6956;DHT22;50345;51.136;16.886;2022-07-15T00:59:15;15.40;99.90
6956;DHT22;50345;51.136;16.886;2022-07-15T01:01:43;15.30;99.90
6956;DHT22;50345;51.136;16.886;2022-07-15T01:04:10;15.30;99.90
6956;DHT22;50345;51.136;16.886;2022-07-15T01:06:38;15.30;99.90
6956;DHT22;50345;51.136;16.886;2022-07-15T01:09:04;15.30;99.90
6956;DHT22;50345;51.136;16.886;2022-07-15T01:11:30;15.30;99.90
6956;DHT22;50345;51.136;16.886;2022-07-15T01:13:58;15.30;99.90
6956;DHT22;50345;51.136;16.886;2022-07-15T01:16:24;15.30;99.90
6956;DHT22;50345;51.136;16.886;2022-07-15T01:18:50;15.30;99.90
6956;DHT22;50345;51.136;16.886;2022-07-15T01:21:15;15.30;99.90
6956;DHT22;50345;51.136;16.886;2022-07-15T01:23:41;15.20;99.90
6956;DHT22;50345;51.136;16.886;2022-07-15T01:26:09;15.20;99.90
6956;DHT22;50345;51.136;16.886;2022-07-15T01:28:36;15.20;99.90
6956;DHT22;50345;51.136;16.886;2022-07-15T01:31:01;15.20;99.90
6956;DHT22;50345;51.136;16.886;2022-07-15T01:33:27;15.10;99.90
6956;DHT22;50345;51.136;16.886;2022-07-15T01:35:55;15.10;99.90
6956;DHT22;50345;51.136;16.886;2022-07-15T01:38:20;15.10;99.90
6956;DHT22;50345;51.136;16.886;2022-07-15T01:40:46;15.00;99.90
6956;DHT22;50345;51.136;16.886;2022-07-15T01:43:12;15.00;99.90
6956;DHT22;50345;51.136;16.886;2022-07-15T01:45:41;15.00;99.90
6956;DHT22;50345;51.136;16.886;2022-07-15T01:48:06;15.00;99.90
6956;DHT22;50345;51.136;16.886;2022-07-15T01:50:32;15.00;99.90
6956;DHT22;50345;51.136;16.886;2022-07-15T01:52:58;15.00;99.90
6956;DHT22;50345;51.136;16.886;2022-07-15T01:55:23;15.00;99.90
6956;DHT22;50345;51.136;16.886;2022-07-15T01:57:49;15.00;99.90
6956;DHT22;50345;51.136;16.886;2022-07-15T02:00:15;15.00;99.90
6956;DHT22;50345;51.136;16.886;2022-07-15T02:02:42;14.90;99.90
6956;DHT22;50345;51.136;16.886;2022-07-15T02:05:08;14.80;99.90
6956;DHT22;50345;51.136;16.886;2022-07-15T02:07:34;14.80;99.90
6956;DHT22;50345;51.136;16.886;2022-07-15T02:12:26;14.70;99.90
6956;DHT22;50345;51.136;16.886;2022-07-15T02:14:51;14.70;99.90
6956;DHT22;50345;51.136;16.886;2022-07-15T02:17:17;14.70;99.90
6956;DHT22;50345;51.136;16.886;2022-07-15T02:19:42;14.70;99.90
6956;DHT22;50345;51.136;16.886;2022-07-15T02:22:08;14.70;99.90
6956;DHT22;50345;51.136;16.886;2022-07-15T02:24:34;14.70;99.90
6956;DHT22;50345;51.136;16.886;2022-07-15T02:26:59;14.70;99.90
6956;DHT22;50345;51.136;16.886;2022-07-15T02:29:25;14.80;99.90
6956;DHT22;50345;51.136;16.886;2022-07-15T02:31:50;14.70;99.90
6956;DHT22;50345;51.136;16.886;2022-07-15T02:34:16;14.80;99.90
6956;DHT22;50345;51.136;16.886;2022-07-15T02:36:41;14.70;99.90
6956;DHT22;50345;51.136;16.886;2022-07-15T02:39:07;14.70;99.90
6956;DHT22;50345;51.136;16.886;2022-07-15T02:41:33;14.70;99.90
6956;DHT22;50345;51.136;16.886;2022-07-15T02:43:58;14.80;99.90
6956;DHT22;50345;51.136;16.886;2022-07-15T02:48:51;14.80;99.90
6956;DHT22;50345;51.136;16.886;2022-07-15T02:51:17;14.70;99.90
6956;DHT22;50345;51.136;16.886;2022-07-15T02:53:42;14.70;99.90
6956;DHT22;50345;51.136;16.886;2022-07-15T02:56:08;14.60;99.90
6956;DHT22;50345;51.136;16.886;2022-07-15T02:58:34;14.60;99.90
6956;DHT22;50345;51.136;16.886;2022-07-15T03:01:00;14.60;99.90
6956;DHT22;50345;51.136;16.886;2022-07-15T03:03:26;14.50;99.90
6956;DHT22;50345;51.136;16.886;2022-07-15T03:05:57;14.50;99.90
6956;DHT22;50345;51.136;16.886;2022-07-15T03:08:25;14.40;99.90
6956;DHT22;50345;51.136;16.886;2022-07-15T03:10:50;14.40;99.90
6956;DHT22;50345;51.136;16.886;2022-07-15T03:13:16;14.40;99.90
6956;DHT22;50345;51.136;16.886;2022-07-15T03:15:41;14.40;99.90
6956;DHT22;50345;51.136;16.886;2022-07-15T03:18:07;14.40;99.90
6956;DHT22;50345;51.136;16.886;2022-07-15T03:20:33;14.30;99.90
6956;DHT22;50345;51.136;16.886;2022-07-15T03:22:59;14.30;99.90
6956;DHT22;50345;51.136;16.886;2022-07-15T03:25:24;14.30;99.90
6956;DHT22;50345;51.136;16.886;2022-07-15T03:27:50;14.30;99.90
6956;DHT22;50345;51.136;16.886;2022-07-15T03:30:15;14.30;99.90
6956;DHT22;50345;51.136;16.886;2022-07-15T03:32:41;14.30;99.90
6956;DHT22;50345;51.136;16.886;2022-07-15T03:35:07;14.30;99.90
6956;DHT22;50345;51.136;16.886;2022-07-15T03:37:33;14.20;99.90
6956;DHT22;50345;51.136;16.886;2022-07-15T03:39:59;14.20;99.90
6956;DHT22;50345;51.136;16.886;2022-07-15T03:42:25;14.30;99.90
6956;DHT22;50345;51.136;16.886;2022-07-15T03:44:51;14.20;99.90
6956;DHT22;50345;51.136;16.886;2022-07-15T03:47:16;14.20;99.90
6956;DHT22;50345;51.136;16.886;2022-07-15T03:49:42;14.20;99.90
6956;DHT22;50345;51.136;16.886;2022-07-15T03:52:08;14.20;99.90
6956;DHT22;50345;51.136;16.886;2022-07-15T03:54:33;14.10;99.90
6956;DHT22;50345;51.136;16.886;2022-07-15T03:56:59;14.20;99.90
6956;DHT22;50345;51.136;16.886;2022-07-15T03:59:25;14.20;99.90
6956;DHT22;50345;51.136;16.886;2022-07-15T04:01:50;14.20;99.90
6956;DHT22;50345;51.136;16.886;2022-07-15T04:04:17;14.20;99.90
6956;DHT22;50345;51.136;16.886;2022-07-15T04:06:43;14.10;99.90
6956;DHT22;50345;51.136;16.886;2022-07-15T04:09:09;14.10;99.90
6956;DHT22;50345;51.136;16.886;2022-07-15T04:11:35;14.10;99.90
6956;DHT22;50345;51.136;16.886;2022-07-15T04:14:01;14.10;99.90
6956;DHT22;50345;51.136;16.886;2022-07-15T04:16:27;14.10;99.90
6956;DHT22;50345;51.136;16.886;2022-07-15T04:18:53;14.10;99.90
6956;DHT22;50345;51.136;16.886;2022-07-15T04:21:18;14.10;99.90
6956;DHT22;50345;51.136;16.886;2022-07-15T04:23:44;14.20;99.90
6956;DHT22;50345;51.136;16.886;2022-07-15T04:26:09;14.20;99.90
6956;DHT22;50345;51.136;16.886;2022-07-15T04:28:35;14.20;99.90
6956;DHT22;50345;51.136;16.886;2022-07-15T04:31:00;14.20;99.90
6956;DHT22;50345;51.136;16.886;2022-07-15T04:33:26;14.20;99.90
6956;DHT22;50345;51.136;16.886;2022-07-15T04:35:52;14.30;99.90
6956;DHT22;50345;51.136;16.886;2022-07-15T04:38:17;14.30;99.90
6956;DHT22;50345;51.136;16.886;2022-07-15T04:40:43;14.30;99.90
6956;DHT22;50345;51.136;16.886;2022-07-15T04:43:09;14.40;99.90
6956;DHT22;50345;51.136;16.886;2022-07-15T04:45:35;14.30;99.90
6956;DHT22;50345;51.136;16.886;2022-07-15T04:48:04;14.40;99.90
6956;DHT22;50345;51.136;16.886;2022-07-15T04:50:50;14.40;99.90
6956;DHT22;50345;51.136;16.886;2022-07-15T04:53:18;14.40;99.90
6956;DHT22;50345;51.136;16.886;2022-07-15T04:55:45;14.50;99.90
6956;DHT22;50345;51.136;16.886;2022-07-15T04:58:10;14.50;99.90
6956;DHT22;50345;51.136;16.886;2022-07-15T05:00:40;14.50;99.90
6956;DHT22;50345;51.136;16.886;2022-07-15T05:03:06;14.50;99.90
6956;DHT22;50345;51.136;16.886;2022-07-15T05:05:31;14.50;99.90
6956;DHT22;50345;51.136;16.886;2022-07-15T05:07:58;14.50;99.90
6956;DHT22;50345;51.136;16.886;2022-07-15T05:10:23;14.60;99.90
6956;DHT22;50345;51.136;16.886;2022-07-15T05:12:49;14.60;99.90
6956;DHT22;50345;51.136;16.886;2022-07-15T05:15:15;14.70;99.90
6956;DHT22;50345;51.136;16.886;2022-07-15T05:17:40;14.70;99.90
6956;DHT22;50345;51.136;16.886;2022-07-15T05:20:07;14.80;99.90
6956;DHT22;50345;51.136;16.886;2022-07-15T05:24:58;14.90;99.90
6956;DHT22;50345;51.136;16.886;2022-07-15T05:27:24;15.00;99.90
6956;DHT22;50345;51.136;16.886;2022-07-15T05:29:49;15.10;99.90
6956;DHT22;50345;51.136;16.886;2022-07-15T05:32:15;15.10;99.90
6956;DHT22;50345;51.136;16.886;2022-07-15T05:34:41;15.20;99.90
6956;DHT22;50345;51.136;16.886;2022-07-15T05:37:06;15.30;99.90
6956;DHT22;50345;51.136;16.886;2022-07-15T05:39:32;15.30;99.90
6956;DHT22;50345;51.136;16.886;2022-07-15T05:41:58;15.40;99.90
6956;DHT22;50345;51.136;16.886;2022-07-15T05:44:24;15.50;99.90
6956;DHT22;50345;51.136;16.886;2022-07-15T05:46:49;15.50;99.90
6956;DHT22;50345;51.136;16.886;2022-07-15T05:49:16;15.60;99.90
6956;DHT22;50345;51.136;16.886;2022-07-15T05:51:41;15.60;99.90
6956;DHT22;50345;51.136;16.886;2022-07-15T05:54:07;15.70;99.90
6956;DHT22;50345;51.136;16.886;2022-07-15T05:56:33;15.70;99.90
6956;DHT22;50345;51.136;16.886;2022-07-15T05:58:58;15.80;99.90
6956;DHT22;50345;51.136;16.886;2022-07-15T06:01:24;15.80;99.90
6956;DHT22;50345;51.136;16.886;2022-07-15T06:03:50;15.80;99.90
6956;DHT22;50345;51.136;16.886;2022-07-15T06:06:16;15.90;99.90
6956;DHT22;50345;51.136;16.886;2022-07-15T06:08:42;15.90;99.90
6956;DHT22;50345;51.136;16.886;2022-07-15T06:11:07;16.00;99.90
6956;DHT22;50345;51.136;16.886;2022-07-15T06:13:34;16.10;99.90
6956;DHT22;50345;51.136;16.886;2022-07-15T06:15:59;16.10;99.90
6956;DHT22;50345;51.136;16.886;2022-07-15T06:18:25;16.10;99.90
6956;DHT22;50345;51.136;16.886;2022-07-15T06:20:51;16.10;99.90
6956;DHT22;50345;51.136;16.886;2022-07-15T06:23:17;16.10;99.90
6956;DHT22;50345;51.136;16.886;2022-07-15T06:25:42;16.10;99.90
6956;DHT22;50345;51.136;16.886;2022-07-15T06:28:08;16.20;99.90
6956;DHT22;50345;51.136;16.886;2022-07-15T06:30:33;16.30;99.90
6956;DHT22;50345;51.136;16.886;2022-07-15T06:32:59;16.40;99.90
6956;DHT22;50345;51.136;16.886;2022-07-15T06:35:25;16.30;99.90
6956;DHT22;50345;51.136;16.886;2022-07-15T06:37:50;16.40;99.90
6956;DHT22;50345;51.136;16.886;2022-07-15T06:40:17;16.40;99.90
6956;DHT22;50345;51.136;16.886;2022-07-15T06:42:43;16.40;99.90
6956;DHT22;50345;51.136;16.886;2022-07-15T06:45:09;16.40;99.90
6956;DHT22;50345;51.136;16.886;2022-07-15T06:50:02;16.60;99.90
6956;DHT22;50345;51.136;16.886;2022-07-15T06:52:27;16.70;99.90
6956;DHT22;50345;51.136;16.886;2022-07-15T06:54:53;16.70;99.90
6956;DHT22;50345;51.136;16.886;2022-07-15T06:57:19;16.80;99.90
6956;DHT22;50345;51.136;16.886;2022-07-15T06:59:44;16.90;99.90
6956;DHT22;50345;51.136;16.886;2022-07-15T07:02:10;17.00;99.90
6956;DHT22;50345;51.136;16.886;2022-07-15T07:04:35;17.00;99.90
6956;DHT22;50345;51.136;16.886;2022-07-15T07:07:01;17.20;99.90
6956;DHT22;50345;51.136;16.886;2022-07-15T07:09:27;17.30;99.90
6956;DHT22;50345;51.136;16.886;2022-07-15T07:11:52;17.50;99.90
6956;DHT22;50345;51.136;16.886;2022-07-15T07:16:44;18.00;99.90
6956;DHT22;50345;51.136;16.886;2022-07-15T07:19:11;18.20;99.90
6956;DHT22;50345;51.136;16.886;2022-07-15T07:21:39;18.30;99.90
6956;DHT22;50345;51.136;16.886;2022-07-15T07:24:04;18.30;99.90
6956;DHT22;50345;51.136;16.886;2022-07-15T07:26:30;18.40;99.90
6956;DHT22;50345;51.136;16.886;2022-07-15T07:28:56;18.50;99.90
6956;DHT22;50345;51.136;16.886;2022-07-15T07:31:22;18.50;99.30
6956;DHT22;50345;51.136;16.886;2022-07-15T07:33:55;18.50;98.30
6956;DHT22;50345;51.136;16.886;2022-07-15T07:36:21;18.50;97.10
6956;DHT22;50345;51.136;16.886;2022-07-15T07:38:46;18.50;95.80
6956;DHT22;50345;51.136;16.886;2022-07-15T07:41:12;18.40;93.90
6956;DHT22;50345;51.136;16.886;2022-07-15T07:43:38;18.40;93.70
6956;DHT22;50345;51.136;16.886;2022-07-15T07:46:04;18.40;93.60
6956;DHT22;50345;51.136;16.886;2022-07-15T07:50:56;18.70;93.20
6956;DHT22;50345;51.136;16.886;2022-07-15T07:53:22;19.00;92.60
6956;DHT22;50345;51.136;16.886;2022-07-15T07:55:48;19.10;91.90
6956;DHT22;50345;51.136;16.886;2022-07-15T08:00:42;19.30;91.00
6956;DHT22;50345;51.136;16.886;2022-07-15T08:03:08;19.10;90.90
6956;DHT22;50345;51.136;16.886;2022-07-15T08:05:34;18.80;93.00
6956;DHT22;50345;51.136;16.886;2022-07-15T08:10:35;18.70;91.40
6956;DHT22;50345;51.136;16.886;2022-07-15T08:13:01;18.80;91.30
6956;DHT22;50345;51.136;16.886;2022-07-15T08:15:27;19.10;91.90
6956;DHT22;50345;51.136;16.886;2022-07-15T08:17:53;19.30;90.50
6956;DHT22;50345;51.136;16.886;2022-07-15T08:20:18;19.50;87.90
6956;DHT22;50345;51.136;16.886;2022-07-15T08:22:44;19.50;85.40
6956;DHT22;50345;51.136;16.886;2022-07-15T08:25:09;19.30;81.40
6956;DHT22;50345;51.136;16.886;2022-07-15T08:27:35;19.40;82.20
6956;DHT22;50345;51.136;16.886;2022-07-15T08:30:01;19.50;80.10
6956;DHT22;50345;51.136;16.886;2022-07-15T08:32:26;19.50;79.80
6956;DHT22;50345;51.136;16.886;2022-07-15T08:34:52;19.60;80.50
6956;DHT22;50345;51.136;16.886;2022-07-15T08:37:17;19.50;80.50
6956;DHT22;50345;51.136;16.886;2022-07-15T08:39:43;19.40;81.00
6956;DHT22;50345;51.136;16.886;2022-07-15T08:44:35;19.60;78.40
6956;DHT22;50345;51.136;16.886;2022-07-15T08:47:05;19.70;77.80
6956;DHT22;50345;51.136;16.886;2022-07-15T08:49:34;19.70;76.20
6956;DHT22;50345;51.136;16.886;2022-07-15T08:52:00;19.70;77.20
6956;DHT22;50345;51.136;16.886;2022-07-15T08:54:27;19.80;73.50
6956;DHT22;50345;51.136;16.886;2022-07-15T08:56:54;20.00;72.00
6956;DHT22;50345;51.136;16.886;2022-07-15T08:59:20;20.20;70.80
6956;DHT22;50345;51.136;16.886;2022-07-15T09:01:46;20.50;71.60
6956;DHT22;50345;51.136;16.886;2022-07-15T09:04:14;20.60;67.20
6956;DHT22;50345;51.136;16.886;2022-07-15T09:06:42;20.50;65.30
6956;DHT22;50345;51.136;16.886;2022-07-15T09:11:43;20.50;65.10
6956;DHT22;50345;51.136;16.886;2022-07-15T09:14:12;20.70;65.60
6956;DHT22;50345;51.136;16.886;2022-07-15T09:16:38;21.60;59.90
6956;DHT22;50345;51.136;16.886;2022-07-15T09:19:04;22.10;58.90
6956;DHT22;50345;51.136;16.886;2022-07-15T09:21:30;22.40;56.90
6956;DHT22;50345;51.136;16.886;2022-07-15T09:23:55;23.10;56.00
6956;DHT22;50345;51.136;16.886;2022-07-15T09:34:11;23.30;50.60
6956;DHT22;50345;51.136;16.886;2022-07-15T09:36:42;22.70;52.60
6956;DHT22;50345;51.136;16.886;2022-07-15T09:39:08;23.40;52.10
6956;DHT22;50345;51.136;16.886;2022-07-15T09:41:39;25.00;48.20
6956;DHT22;50345;51.136;16.886;2022-07-15T09:49:11;24.50;46.70
6956;DHT22;50345;51.136;16.886;2022-07-15T09:52:09;24.10;46.50
6956;DHT22;50345;51.136;16.886;2022-07-15T09:54:37;23.90;46.70
6956;DHT22;50345;51.136;16.886;2022-07-15T09:57:06;23.60;47.80
6956;DHT22;50345;51.136;16.886;2022-07-15T09:59:32;23.50;47.60
6956;DHT22;50345;51.136;16.886;2022-07-15T10:01:58;23.90;48.20
6956;DHT22;50345;51.136;16.886;2022-07-15T10:04:26;25.00;48.40
6956;DHT22;50345;51.136;16.886;2022-07-15T10:06:54;25.50;44.80
6956;DHT22;50345;51.136;16.886;2022-07-15T10:09:24;25.50;45.80
6956;DHT22;50345;51.136;16.886;2022-07-15T10:11:53;25.30;45.10
6956;DHT22;50345;51.136;16.886;2022-07-15T10:14:50;25.20;44.60
6956;DHT22;50345;51.136;16.886;2022-07-15T10:23:06;24.90;45.40
6956;DHT22;50345;51.136;16.886;2022-07-15T10:28:58;25.20;47.00
6956;DHT22;50345;51.136;16.886;2022-07-15T10:31:25;25.50;43.80
6956;DHT22;50345;51.136;16.886;2022-07-15T10:39:20;24.60;44.40
6956;DHT22;50345;51.136;16.886;2022-07-15T10:42:03;24.40;44.20
6956;DHT22;50345;51.136;16.886;2022-07-15T10:44:34;24.80;44.60
6956;DHT22;50345;51.136;16.886;2022-07-15T10:49:38;25.70;41.60
6956;DHT22;50345;51.136;16.886;2022-07-15T10:52:27;25.20;42.70
6956;DHT22;50345;51.136;16.886;2022-07-15T11:00:26;24.30;46.50
6956;DHT22;50345;51.136;16.886;2022-07-15T11:05:30;25.60;43.10
6956;DHT22;50345;51.136;16.886;2022-07-15T11:07:56;25.50;43.20
6956;DHT22;50345;51.136;16.886;2022-07-15T11:10:22;24.90;42.10
6956;DHT22;50345;51.136;16.886;2022-07-15T11:15:17;26.80;41.40
6956;DHT22;50345;51.136;16.886;2022-07-15T11:17:45;27.40;39.30
6956;DHT22;50345;51.136;16.886;2022-07-15T11:20:33;28.20;39.30
6956;DHT22;50345;51.136;16.886;2022-07-15T11:23:00;29.80;36.50
6956;DHT22;50345;51.136;16.886;2022-07-15T11:25:40;30.60;34.00
6956;DHT22;50345;51.136;16.886;2022-07-15T11:28:09;30.30;35.70
6956;DHT22;50345;51.136;16.886;2022-07-15T11:30:44;30.20;36.00
6956;DHT22;50345;51.136;16.886;2022-07-15T11:33:14;29.80;36.30
6956;DHT22;50345;51.136;16.886;2022-07-15T11:35:50;29.30;35.90
6956;DHT22;50345;51.136;16.886;2022-07-15T11:38:23;28.80;36.00
6956;DHT22;50345;51.136;16.886;2022-07-15T11:40:54;28.70;35.90
6956;DHT22;50345;51.136;16.886;2022-07-15T11:43:40;29.30;35.50
6956;DHT22;50345;51.136;16.886;2022-07-15T11:46:26;29.30;35.80
6956;DHT22;50345;51.136;16.886;2022-07-15T11:48:54;28.40;35.90
6956;DHT22;50345;51.136;16.886;2022-07-15T11:51:27;28.10;36.30
6956;DHT22;50345;51.136;16.886;2022-07-15T11:53:54;28.60;35.30
6956;DHT22;50345;51.136;16.886;2022-07-15T11:56:20;28.80;35.50
6956;DHT22;50345;51.136;16.886;2022-07-15T12:36:27;32.90;44.50
6956;DHT22;50345;51.136;16.886;2022-07-15T12:39:21;32.70;38.90
6956;DHT22;50345;51.136;16.886;2022-07-15T12:42:02;32.40;44.50
6956;DHT22;50345;51.136;16.886;2022-07-15T12:47:03;31.00;38.10
6956;DHT22;50345;51.136;16.886;2022-07-15T12:49:50;30.40;48.10
6956;DHT22;50345;51.136;16.886;2022-07-15T12:55:17;30.00;34.70
6956;DHT22;50345;51.136;16.886;2022-07-15T12:57:44;31.00;33.40
6956;DHT22;50345;51.136;16.886;2022-07-15T13:05:23;29.50;30.70
6956;DHT22;50345;51.136;16.886;2022-07-15T13:07:49;28.90;32.80
6956;DHT22;50345;51.136;16.886;2022-07-15T13:10:15;28.40;33.40
6956;DHT22;50345;51.136;16.886;2022-07-15T13:12:41;28.60;34.30
6956;DHT22;50345;51.136;16.886;2022-07-15T13:15:07;29.10;34.10
6956;DHT22;50345;51.136;16.886;2022-07-15T13:17:33;29.20;33.10
6956;DHT22;50345;51.136;16.886;2022-07-15T13:20:01;29.10;33.10
6956;DHT22;50345;51.136;16.886;2022-07-15T13:22:26;28.80;32.80
6956;DHT22;50345;51.136;16.886;2022-07-15T13:24:54;29.20;32.60
6956;DHT22;50345;51.136;16.886;2022-07-15T13:27:20;29.10;32.80
6956;DHT22;50345;51.136;16.886;2022-07-15T13:29:45;29.30;33.60
6956;DHT22;50345;51.136;16.886;2022-07-15T13:32:11;29.70;33.10
6956;DHT22;50345;51.136;16.886;2022-07-15T13:34:36;29.80;32.20
6956;DHT22;50345;51.136;16.886;2022-07-15T13:37:02;29.50;32.90
6956;DHT22;50345;51.136;16.886;2022-07-15T13:39:28;29.00;32.20
6956;DHT22;50345;51.136;16.886;2022-07-15T13:41:53;28.80;33.10
6956;DHT22;50345;51.136;16.886;2022-07-15T13:44:19;28.80;32.30
6956;DHT22;50345;51.136;16.886;2022-07-15T13:46:44;28.50;32.30
6956;DHT22;50345;51.136;16.886;2022-07-15T13:49:10;28.10;33.20
6956;DHT22;50345;51.136;16.886;2022-07-15T13:51:35;27.90;33.80
6956;DHT22;50345;51.136;16.886;2022-07-15T13:54:05;28.20;34.60
6956;DHT22;50345;51.136;16.886;2022-07-15T14:23:37;32.70;27.60
6956;DHT22;50345;51.136;16.886;2022-07-15T14:26:03;32.30;28.70
6956;DHT22;50345;51.136;16.886;2022-07-15T14:28:28;32.10;28.40
6956;DHT22;50345;51.136;16.886;2022-07-15T14:30:54;31.20;29.10
6956;DHT22;50345;51.136;16.886;2022-07-15T14:33:20;30.80;29.90
6956;DHT22;50345;51.136;16.886;2022-07-15T14:35:46;31.10;29.50
6956;DHT22;50345;51.136;16.886;2022-07-15T14:43:03;32.80;27.80
6956;DHT22;50345;51.136;16.886;2022-07-15T14:45:29;32.60;28.60
6956;DHT22;50345;51.136;16.886;2022-07-15T14:47:55;32.50;29.30
6956;DHT22;50345;51.136;16.886;2022-07-15T14:50:20;32.40;28.50
6956;DHT22;50345;51.136;16.886;2022-07-15T14:52:46;31.50;29.00
6956;DHT22;50345;51.136;16.886;2022-07-15T14:55:12;30.30;29.80
6956;DHT22;50345;51.136;16.886;2022-07-15T14:57:38;29.10;31.00
6956;DHT22;50345;51.136;16.886;2022-07-15T15:00:04;28.20;33.10
6956;DHT22;50345;51.136;16.886;2022-07-15T15:02:29;27.40;34.30
6956;DHT22;50345;51.136;16.886;2022-07-15T15:07:21;26.20;34.20
6956;DHT22;50345;51.136;16.886;2022-07-15T15:09:47;25.70;35.70
6956;DHT22;50345;51.136;16.886;2022-07-15T15:12:12;25.40;36.50
6956;DHT22;50345;51.136;16.886;2022-07-15T15:14:38;25.70;36.60
6956;DHT22;50345;51.136;16.886;2022-07-15T15:17:04;26.40;35.50
6956;DHT22;50345;51.136;16.886;2022-07-15T15:19:31;26.60;35.80
6956;DHT22;50345;51.136;16.886;2022-07-15T15:21:56;26.50;36.60
6956;DHT22;50345;51.136;16.886;2022-07-15T15:26:48;25.90;36.50
6956;DHT22;50345;51.136;16.886;2022-07-15T15:29:18;25.70;37.60
6956;DHT22;50345;51.136;16.886;2022-07-15T15:34:09;25.30;37.20
6956;DHT22;50345;51.136;16.886;2022-07-15T15:36:35;25.50;39.10
6956;DHT22;50345;51.136;16.886;2022-07-15T15:39:01;26.40;38.50
6956;DHT22;50345;51.136;16.886;2022-07-15T15:41:27;27.60;36.80
6956;DHT22;50345;51.136;16.886;2022-07-15T15:43:53;28.90;33.10
6956;DHT22;50345;51.136;16.886;2022-07-15T15:46:19;29.40;32.10
6956;DHT22;50345;51.136;16.886;2022-07-15T15:48:45;29.40;32.40
6956;DHT22;50345;51.136;16.886;2022-07-15T15:51:10;28.90;32.50
6956;DHT22;50345;51.136;16.886;2022-07-15T15:53:36;28.20;33.10
6956;DHT22;50345;51.136;16.886;2022-07-15T15:56:01;27.80;33.60
6956;DHT22;50345;51.136;16.886;2022-07-15T15:58:28;27.20;33.80
6956;DHT22;50345;51.136;16.886;2022-07-15T16:00:53;26.90;35.00
6956;DHT22;50345;51.136;16.886;2022-07-15T16:03:19;26.70;36.50
6956;DHT22;50345;51.136;16.886;2022-07-15T16:05:45;26.60;35.70
6956;DHT22;50345;51.136;16.886;2022-07-15T16:08:10;26.30;36.00
6956;DHT22;50345;51.136;16.886;2022-07-15T16:15:28;25.30;37.50
6956;DHT22;50345;51.136;16.886;2022-07-15T16:17:53;25.30;38.40
6956;DHT22;50345;51.136;16.886;2022-07-15T16:20:19;25.60;38.60
6956;DHT22;50345;51.136;16.886;2022-07-15T16:22:45;25.70;38.40
6956;DHT22;50345;51.136;16.886;2022-07-15T16:27:45;25.40;38.40
6956;DHT22;50345;51.136;16.886;2022-07-15T16:32:37;24.60;38.10
6956;DHT22;50345;51.136;16.886;2022-07-15T16:35:04;24.40;39.20
6956;DHT22;50345;51.136;16.886;2022-07-15T16:37:30;24.20;39.10
6956;DHT22;50345;51.136;16.886;2022-07-15T16:39:56;24.10;39.50
6956;DHT22;50345;51.136;16.886;2022-07-15T16:44:47;23.90;39.50
6956;DHT22;50345;51.136;16.886;2022-07-15T16:47:13;22.80;40.40
6956;DHT22;50345;51.136;16.886;2022-07-15T16:49:39;23.60;48.40
6956;DHT22;50345;51.136;16.886;2022-07-15T16:54:31;23.40;40.00
6956;DHT22;50345;51.136;16.886;2022-07-15T16:56:57;23.20;40.30
6956;DHT22;50345;51.136;16.886;2022-07-15T17:04:16;22.60;41.80
6956;DHT22;50345;51.136;16.886;2022-07-15T17:06:42;22.50;42.20
6956;DHT22;50345;51.136;16.886;2022-07-15T17:09:08;22.50;42.20
6956;DHT22;50345;51.136;16.886;2022-07-15T17:11:34;22.60;42.40
6956;DHT22;50345;51.136;16.886;2022-07-15T17:14:00;22.70;42.20
6956;DHT22;50345;51.136;16.886;2022-07-15T17:18:51;22.50;41.70
6956;DHT22;50345;51.136;16.886;2022-07-15T17:23:43;22.30;43.10
6956;DHT22;50345;51.136;16.886;2022-07-15T17:26:08;22.20;43.90
6956;DHT22;50345;51.136;16.886;2022-07-15T17:28:34;22.20;44.00
6956;DHT22;50345;51.136;16.886;2022-07-15T17:31:03;22.20;44.00
6956;DHT22;50345;51.136;16.886;2022-07-15T17:33:29;22.30;44.40
6956;DHT22;50345;51.136;16.886;2022-07-15T17:35:55;22.30;44.40
6956;DHT22;50345;51.136;16.886;2022-07-15T17:38:21;22.40;44.60
6956;DHT22;50345;51.136;16.886;2022-07-15T17:40:47;22.30;44.50
6956;DHT22;50345;51.136;16.886;2022-07-15T17:43:12;22.30;44.50
6956;DHT22;50345;51.136;16.886;2022-07-15T17:45:38;22.20;44.50
6956;DHT22;50345;51.136;16.886;2022-07-15T17:48:04;22.10;44.20
6956;DHT22;50345;51.136;16.886;2022-07-15T18:00:14;21.30;44.80
6956;DHT22;50345;51.136;16.886;2022-07-15T18:02:40;21.10;45.10
6956;DHT22;50345;51.136;16.886;2022-07-15T18:05:08;21.00;45.50
6956;DHT22;50345;51.136;16.886;2022-07-15T18:14:52;20.30;46.00
6956;DHT22;50345;51.136;16.886;2022-07-15T18:17:18;20.20;46.90
6956;DHT22;50345;51.136;16.886;2022-07-15T18:19:44;20.10;46.90
6956;DHT22;50345;51.136;16.886;2022-07-15T18:22:10;20.00;47.40
6956;DHT22;50345;51.136;16.886;2022-07-15T18:24:35;19.90;47.80
6956;DHT22;50345;51.136;16.886;2022-07-15T18:27:01;19.80;47.90
6956;DHT22;50345;51.136;16.886;2022-07-15T18:29:27;19.80;48.00
6956;DHT22;50345;51.136;16.886;2022-07-15T18:31:53;19.70;48.10
6956;DHT22;50345;51.136;16.886;2022-07-15T18:34:18;19.60;48.40
6956;DHT22;50345;51.136;16.886;2022-07-15T18:36:44;19.60;48.90
6956;DHT22;50345;51.136;16.886;2022-07-15T18:39:10;19.50;49.20
6956;DHT22;50345;51.136;16.886;2022-07-15T18:41:36;19.40;49.20